createdAt,value
2017-08-28T00:00:21.018Z,14.62
2017-08-28T00:01:29.867Z,14.52
2017-08-28T00:02:39.045Z,14.61
2017-08-28T00:03:47.912Z,14.68
2017-08-28T00:04:56.833Z,14.65
2017-08-28T00:06:05.676Z,14.6
2017-08-28T00:07:14.522Z,14.61
2017-08-28T00:08:23.368Z,14.57
2017-08-28T00:09:32.544Z,14.55
2017-08-28T00:10:41.537Z,14.58
2017-08-28T00:11:50.382Z,14.6
2017-08-28T00:12:59.226Z,14.55
2017-08-28T00:14:08.072Z,14.5
2017-08-28T00:15:16.916Z,14.46
2017-08-28T00:16:26.294Z,14.51
2017-08-28T00:17:35.139Z,14.54
2017-08-28T00:18:43.982Z,14.52
2017-08-28T00:19:52.826Z,14.43
2017-08-28T00:21:01.669Z,14.51
2017-08-28T00:22:10.615Z,14.5
2017-08-28T00:23:19.462Z,14.43
2017-08-28T00:24:28.304Z,14.46
2017-08-28T00:25:37.157Z,14.57
2017-08-28T00:26:46.003Z,14.6
2017-08-28T00:27:54.946Z,14.54
2017-08-28T00:29:03.789Z,14.62
2017-08-28T00:30:12.635Z,14.6
2017-08-28T00:31:21.478Z,14.54
2017-08-28T00:32:30.324Z,14.58
2017-08-28T00:33:39.220Z,14.5
2017-08-28T00:34:48.065Z,14.47
2017-08-28T00:35:56.910Z,14.45
2017-08-28T00:37:05.770Z,14.46
2017-08-28T00:38:14.599Z,14.43
2017-08-28T00:39:23.595Z,14.29
2017-08-28T00:40:32.437Z,14.39
2017-08-28T00:41:41.280Z,14.37
2017-08-28T00:42:50.125Z,14.36
2017-08-28T00:43:58.970Z,14.25
2017-08-28T00:45:07.818Z,14.36
2017-08-28T00:46:16.664Z,14.35
2017-08-28T00:47:25.510Z,14.27
2017-08-28T00:48:35.017Z,14.27
2017-08-28T00:49:43.862Z,14.29
2017-08-28T00:50:52.707Z,14.39
2017-08-28T00:52:01.548Z,14.39
2017-08-28T00:53:10.733Z,14.28
2017-08-28T00:54:19.577Z,14.27
2017-08-28T00:55:28.421Z,14.22
2017-08-28T00:56:37.564Z,14.18
2017-08-28T00:57:46.409Z,14.18
2017-08-28T00:58:55.253Z,14.15
2017-08-28T01:00:04.121Z,14.21
2017-08-28T01:01:12.966Z,14.1
2017-08-28T01:02:22.211Z,14.04
2017-08-28T01:03:31.056Z,14.09
2017-08-28T01:04:39.903Z,14.1
2017-08-28T01:05:48.751Z,14.03
2017-08-28T01:06:57.590Z,14.06
2017-08-28T01:08:06.537Z,14.09
2017-08-28T01:09:15.381Z,14.06
2017-08-28T01:10:24.557Z,14.06
2017-08-28T01:11:33.400Z,14.04
2017-08-28T01:12:42.245Z,14.07
2017-08-28T01:13:51.574Z,13.99
2017-08-28T01:15:00.420Z,13.97
2017-08-28T01:16:09.262Z,14
2017-08-28T01:17:18.436Z,13.96
2017-08-28T01:18:27.283Z,14.04
2017-08-28T01:19:36.279Z,14.02
2017-08-28T01:20:45.128Z,13.95
2017-08-28T01:21:53.972Z,13.99
2017-08-28T01:23:03.148Z,13.95
2017-08-28T01:24:11.993Z,13.91
2017-08-28T01:25:20.987Z,13.92
2017-08-28T01:26:29.830Z,13.99
2017-08-28T01:27:38.674Z,13.92
2017-08-28T01:28:47.516Z,13.88
2017-08-28T01:29:56.363Z,13.91
2017-08-28T01:31:05.458Z,13.85
2017-08-28T01:32:14.304Z,13.92
2017-08-28T01:33:23.151Z,13.85
2017-08-28T01:34:31.994Z,13.79
2017-08-28T01:35:40.841Z,13.82
2017-08-28T01:36:49.837Z,13.75
2017-08-28T01:37:58.677Z,13.79
2017-08-28T01:39:07.522Z,13.73
2017-08-28T01:40:16.366Z,13.78
2017-08-28T01:41:25.210Z,13.77
2017-08-28T01:42:34.455Z,13.79
2017-08-28T01:43:43.300Z,13.69
2017-08-28T01:44:52.149Z,13.77
2017-08-28T01:46:00.995Z,13.77
2017-08-28T01:47:09.835Z,13.69
2017-08-28T01:48:18.830Z,13.73
2017-08-28T01:49:27.674Z,13.79
2017-08-28T01:50:36.518Z,13.79
2017-08-28T01:51:45.361Z,13.7
2017-08-28T01:52:54.205Z,13.73
2017-08-28T01:54:03.199Z,13.69
2017-08-28T01:55:12.044Z,13.7
2017-08-28T01:56:20.889Z,13.66
2017-08-28T01:57:29.736Z,13.7
2017-08-28T01:58:38.580Z,13.66
2017-08-28T01:59:47.576Z,13.66
2017-08-28T02:00:56.423Z,13.66
2017-08-28T02:02:05.267Z,13.52
2017-08-28T02:03:14.113Z,13.69
2017-08-28T02:04:22.958Z,13.62
2017-08-28T02:05:31.850Z,13.63
2017-08-28T02:06:40.694Z,13.69
2017-08-28T02:07:49.870Z,13.67
2017-08-28T02:08:58.713Z,13.64
2017-08-28T02:10:07.558Z,13.67
2017-08-28T02:11:16.401Z,13.63
2017-08-28T02:12:25.248Z,13.69
2017-08-28T02:13:34.092Z,13.7
2017-08-28T02:14:42.940Z,13.62
2017-08-28T02:15:51.786Z,13.63
2017-08-28T02:17:00.880Z,13.67
2017-08-28T02:18:09.728Z,13.66
2017-08-28T02:19:18.575Z,13.63
2017-08-28T02:20:27.415Z,13.64
2017-08-28T02:21:36.262Z,13.67
2017-08-28T02:22:45.156Z,13.66
2017-08-28T02:23:54.000Z,13.73
2017-08-28T02:25:03.094Z,13.71
2017-08-28T02:26:11.939Z,13.7
2017-08-28T02:27:20.781Z,13.69
2017-08-28T02:28:29.775Z,13.7
2017-08-28T02:29:38.625Z,13.69
2017-08-28T02:30:47.472Z,13.67
2017-08-28T02:31:56.317Z,13.73
2017-08-28T02:33:05.162Z,13.62
2017-08-28T02:34:14.157Z,13.64
2017-08-28T02:35:23.003Z,13.66
2017-08-28T02:36:31.848Z,13.67
2017-08-28T02:37:40.692Z,13.69
2017-08-28T02:38:49.543Z,13.71
2017-08-28T02:39:58.537Z,13.67
2017-08-28T02:41:07.383Z,13.64
2017-08-28T02:42:16.226Z,13.64
2017-08-28T02:43:25.069Z,13.64
2017-08-28T02:44:33.912Z,13.66
2017-08-28T02:45:42.905Z,13.66
2017-08-28T02:46:51.750Z,13.63
2017-08-28T02:48:00.591Z,13.67
2017-08-28T02:49:09.432Z,13.55
2017-08-28T02:50:18.277Z,13.49
2017-08-28T02:51:27.844Z,13.55
2017-08-28T02:52:37.043Z,13.52
2017-08-28T02:53:46.221Z,13.52
2017-08-28T02:54:55.068Z,13.55
2017-08-28T02:56:03.919Z,13.54
2017-08-28T02:57:13.394Z,13.51
2017-08-28T02:58:22.240Z,13.48
2017-08-28T02:59:31.083Z,13.44
2017-08-28T03:00:39.933Z,13.59
2017-08-28T03:01:48.779Z,13.54
2017-08-28T03:02:57.771Z,13.49
2017-08-28T03:04:06.614Z,13.52
2017-08-28T03:05:15.458Z,13.49
2017-08-28T03:06:24.329Z,13.48
2017-08-28T03:07:33.149Z,13.57
2017-08-28T03:08:42.045Z,13.48
2017-08-28T03:09:50.888Z,13.44
2017-08-28T03:10:59.729Z,13.62
2017-08-28T03:12:08.574Z,13.55
2017-08-28T03:13:17.418Z,13.51
2017-08-28T03:14:26.513Z,13.64
2017-08-28T03:15:35.359Z,13.51
2017-08-28T03:16:44.204Z,13.54
2017-08-28T03:17:53.047Z,13.52
2017-08-28T03:19:02.228Z,13.6
2017-08-28T03:20:11.222Z,13.49
2017-08-28T03:21:20.067Z,13.51
2017-08-28T03:22:28.910Z,13.59
2017-08-28T03:23:37.756Z,13.39
2017-08-28T03:24:46.600Z,13.59
2017-08-28T03:25:55.493Z,13.59
2017-08-28T03:27:04.338Z,13.41
2017-08-28T03:28:13.182Z,13.44
2017-08-28T03:29:22.027Z,13.52
2017-08-28T03:30:30.870Z,13.55
2017-08-28T03:31:39.718Z,13.54
2017-08-28T03:32:48.562Z,13.54
2017-08-28T03:33:57.407Z,13.59
2017-08-28T03:35:06.249Z,13.49
2017-08-28T03:36:15.093Z,13.59
2017-08-28T03:37:23.938Z,13.52
2017-08-28T03:38:32.780Z,13.52
2017-08-28T03:39:41.626Z,13.41
2017-08-28T03:40:50.471Z,13.59
2017-08-28T03:41:59.314Z,13.57
2017-08-28T03:43:08.257Z,13.46
2017-08-28T03:44:17.100Z,13.36
2017-08-28T03:45:25.946Z,13.52
2017-08-28T03:46:34.793Z,13.48
2017-08-28T03:47:43.636Z,13.48
2017-08-28T03:48:52.629Z,13.48
2017-08-28T03:50:01.470Z,13.45
2017-08-28T03:51:10.314Z,13.52
2017-08-28T03:52:19.155Z,13.49
2017-08-28T03:53:28.001Z,13.49
2017-08-28T03:54:36.995Z,13.46
2017-08-28T03:55:45.836Z,13.52
2017-08-28T03:56:54.682Z,13.46
2017-08-28T03:58:03.524Z,13.51
2017-08-28T03:59:12.369Z,13.42
2017-08-28T04:00:21.262Z,13.46
2017-08-28T04:01:30.108Z,13.46
2017-08-28T04:02:38.952Z,13.45
2017-08-28T04:03:47.798Z,13.45
2017-08-28T04:04:56.637Z,13.46
2017-08-28T04:06:05.530Z,13.51
2017-08-28T04:07:14.374Z,13.49
2017-08-28T04:08:23.219Z,13.49
2017-08-28T04:09:32.062Z,13.62
2017-08-28T04:10:40.909Z,13.54
2017-08-28T04:11:49.905Z,13.49
2017-08-28T04:12:58.749Z,13.39
2017-08-28T04:14:07.594Z,13.62
2017-08-28T04:15:16.436Z,13.52
2017-08-28T04:16:25.957Z,13.59
2017-08-28T04:17:34.897Z,13.52
2017-08-28T04:18:43.741Z,13.52
2017-08-28T04:19:52.585Z,13.38
2017-08-28T04:21:01.433Z,13.46
2017-08-28T04:22:10.277Z,13.49
2017-08-28T04:23:19.170Z,13.55
2017-08-28T04:24:28.015Z,13.55
2017-08-28T04:25:36.860Z,13.52
2017-08-28T04:26:45.703Z,13.51
2017-08-28T04:27:54.548Z,13.54
2017-08-28T04:29:03.391Z,13.54
2017-08-28T04:30:12.236Z,13.49
2017-08-28T04:31:21.081Z,13.45
2017-08-28T04:32:29.928Z,13.48
2017-08-28T04:33:38.773Z,13.45
2017-08-28T04:34:47.767Z,13.51
2017-08-28T04:35:56.608Z,13.54
2017-08-28T04:37:05.453Z,13.59
2017-08-28T04:38:14.295Z,13.54
2017-08-28T04:39:23.138Z,13.55
2017-08-28T04:40:32.285Z,13.63
2017-08-28T04:41:41.129Z,13.59
2017-08-28T04:42:49.977Z,13.59
2017-08-28T04:43:58.819Z,13.59
2017-08-28T04:45:07.663Z,13.64
2017-08-28T04:46:16.655Z,13.57
2017-08-28T04:47:25.503Z,13.62
2017-08-28T04:48:34.344Z,13.62
2017-08-28T04:49:43.189Z,13.67
2017-08-28T04:50:52.370Z,13.64
2017-08-28T04:52:01.366Z,13.63
2017-08-28T04:53:10.211Z,13.66
2017-08-28T04:54:19.055Z,13.66
2017-08-28T04:55:27.899Z,13.66
2017-08-28T04:56:36.747Z,13.66
2017-08-28T04:57:45.739Z,13.67
2017-08-28T04:58:54.916Z,13.6
2017-08-28T05:00:03.811Z,13.66
2017-08-28T05:01:12.662Z,13.63
2017-08-28T05:02:21.509Z,13.67
2017-08-28T05:03:30.651Z,13.64
2017-08-28T05:04:39.497Z,13.62
2017-08-28T05:05:48.344Z,13.59
2017-08-28T05:06:57.189Z,13.6
2017-08-28T05:08:06.030Z,13.67
2017-08-28T05:09:15.021Z,13.63
2017-08-28T05:10:23.866Z,13.63
2017-08-28T05:11:32.712Z,13.66
2017-08-28T05:12:41.557Z,13.7
2017-08-28T05:13:50.401Z,13.7
2017-08-28T05:14:59.397Z,13.67
2017-08-28T05:16:08.242Z,13.69
2017-08-28T05:17:17.088Z,13.73
2017-08-28T05:18:25.932Z,13.78
2017-08-28T05:19:34.776Z,13.71
2017-08-28T05:20:43.773Z,13.7
2017-08-28T05:21:52.617Z,13.7
2017-08-28T05:23:01.463Z,13.78
2017-08-28T05:24:10.309Z,13.71
2017-08-28T05:25:19.156Z,13.79
2017-08-28T05:26:28.258Z,13.81
2017-08-28T05:27:37.105Z,13.81
2017-08-28T05:28:45.954Z,13.89
2017-08-28T05:29:54.802Z,13.91
2017-08-28T05:31:03.646Z,13.77
2017-08-28T05:32:12.541Z,13.92
2017-08-28T05:33:21.390Z,13.89
2017-08-28T05:34:30.238Z,13.87
2017-08-28T05:35:39.087Z,13.91
2017-08-28T05:36:47.934Z,13.87
2017-08-28T05:37:56.927Z,13.95
2017-08-28T05:39:05.775Z,13.88
2017-08-28T05:40:14.620Z,13.95
2017-08-28T05:41:23.463Z,13.92
2017-08-28T05:42:32.309Z,13.99
2017-08-28T05:43:41.655Z,14.02
2017-08-28T05:44:50.499Z,14.04
2017-08-28T05:45:59.342Z,13.92
2017-08-28T05:47:08.191Z,14.04
2017-08-28T05:48:17.036Z,14.06
2017-08-28T05:49:25.983Z,14.04
2017-08-28T05:50:34.826Z,14.04
2017-08-28T05:51:43.674Z,14.07
2017-08-28T05:52:52.519Z,14.21
2017-08-28T05:54:01.360Z,14.14
2017-08-28T05:55:10.356Z,14.2
2017-08-28T05:56:19.301Z,14.17
2017-08-28T05:57:28.148Z,14.17
2017-08-28T05:58:36.995Z,14.2
2017-08-28T05:59:45.838Z,14.21
2017-08-28T06:00:54.685Z,14.18
2017-08-28T06:02:03.531Z,14.28
2017-08-28T06:03:12.377Z,14.29
2017-08-28T06:04:21.225Z,14.28
2017-08-28T06:05:30.070Z,14.27
2017-08-28T06:06:39.399Z,14.28
2017-08-28T06:07:48.246Z,14.32
2017-08-28T06:08:57.091Z,14.35
2017-08-28T06:10:05.940Z,14.37
2017-08-28T06:11:14.786Z,14.47
2017-08-28T06:12:23.832Z,14.47
2017-08-28T06:13:32.678Z,14.42
2017-08-28T06:14:41.525Z,14.43
2017-08-28T06:15:50.369Z,14.51
2017-08-28T06:16:59.214Z,14.51
2017-08-28T06:18:08.212Z,14.57
2017-08-28T06:19:17.059Z,14.55
2017-08-28T06:20:26.233Z,14.57
2017-08-28T06:21:35.082Z,14.58
2017-08-28T06:22:43.927Z,14.57
2017-08-28T06:23:52.923Z,14.51
2017-08-28T06:25:01.772Z,14.58
2017-08-28T06:26:10.951Z,14.58
2017-08-28T06:27:19.794Z,14.47
2017-08-28T06:28:28.640Z,14.52
2017-08-28T06:29:37.885Z,14.62
2017-08-28T06:30:46.732Z,14.58
2017-08-28T06:31:55.578Z,14.61
2017-08-28T06:33:04.423Z,14.7
2017-08-28T06:34:13.272Z,14.68
2017-08-28T06:35:22.219Z,14.52
2017-08-28T06:36:31.065Z,14.51
2017-08-28T06:37:39.917Z,14.57
2017-08-28T06:38:48.762Z,14.64
2017-08-28T06:39:57.609Z,14.52
2017-08-28T06:41:06.708Z,14.7
2017-08-28T06:42:15.556Z,14.61
2017-08-28T06:43:24.402Z,14.65
2017-08-28T06:44:33.246Z,14.77
2017-08-28T06:45:42.092Z,14.75
2017-08-28T06:46:50.938Z,14.8
2017-08-28T06:47:59.785Z,14.78
2017-08-28T06:49:08.966Z,14.78
2017-08-28T06:50:17.812Z,14.77
2017-08-28T06:51:26.657Z,14.86
2017-08-28T06:52:35.605Z,14.89
2017-08-28T06:53:44.452Z,14.92
2017-08-28T06:54:53.297Z,14.86
2017-08-28T06:56:02.143Z,14.92
2017-08-28T06:57:10.990Z,14.86
2017-08-28T06:58:19.988Z,14.95
2017-08-28T06:59:28.834Z,15.06
2017-08-28T07:00:37.883Z,14.95
2017-08-28T07:01:46.768Z,15.06
2017-08-28T07:02:55.622Z,15.1
2017-08-28T07:04:04.466Z,15.09
2017-08-28T07:05:13.313Z,15.1
2017-08-28T07:06:22.159Z,15.16
2017-08-28T07:07:31.007Z,15.21
2017-08-28T07:08:39.853Z,15.29
2017-08-28T07:09:48.700Z,15.29
2017-08-28T07:10:57.881Z,15.25
2017-08-28T07:12:06.726Z,15.34
2017-08-28T07:13:15.572Z,15.29
2017-08-28T07:14:24.421Z,15.29
2017-08-28T07:15:33.270Z,15.31
2017-08-28T07:16:42.119Z,15.39
2017-08-28T07:17:50.966Z,15.44
2017-08-28T07:18:59.812Z,15.53
2017-08-28T07:20:08.660Z,15.47
2017-08-28T07:21:17.505Z,15.54
2017-08-28T07:22:26.351Z,15.57
2017-08-28T07:23:35.531Z,15.59
2017-08-28T07:24:44.378Z,15.69
2017-08-28T07:25:53.228Z,15.62
2017-08-28T07:27:02.076Z,15.68
2017-08-28T07:28:10.922Z,15.67
2017-08-28T07:29:19.817Z,15.69
2017-08-28T07:30:28.670Z,15.71
2017-08-28T07:31:37.515Z,15.74
2017-08-28T07:32:46.359Z,15.64
2017-08-28T07:33:55.205Z,15.74
2017-08-28T07:35:04.201Z,15.8
2017-08-28T07:36:13.047Z,15.86
2017-08-28T07:37:22.234Z,15.87
2017-08-28T07:38:31.083Z,15.92
2017-08-28T07:39:39.928Z,15.93
2017-08-28T07:40:48.927Z,15.96
2017-08-28T07:41:57.773Z,16
2017-08-28T07:43:06.621Z,16.12
2017-08-28T07:44:15.468Z,16.14
2017-08-28T07:45:24.317Z,16.21
2017-08-28T07:46:33.164Z,16.24
2017-08-28T07:47:42.007Z,16.34
2017-08-28T07:48:50.855Z,16.38
2017-08-28T07:49:59.702Z,16.43
2017-08-28T07:51:08.549Z,16.46
2017-08-28T07:52:17.546Z,16.43
2017-08-28T07:53:26.390Z,16.48
2017-08-28T07:54:35.241Z,16.5
2017-08-28T07:55:44.091Z,16.57
2017-08-28T07:56:52.938Z,16.66
2017-08-28T07:58:01.938Z,16.67
2017-08-28T07:59:10.783Z,16.7
2017-08-28T08:00:19.629Z,16.68
2017-08-28T08:01:28.479Z,16.91
2017-08-28T08:02:37.329Z,16.91
2017-08-28T08:03:46.225Z,16.91
2017-08-28T08:04:55.076Z,17.04
2017-08-28T08:06:04.251Z,16.97
2017-08-28T08:07:13.111Z,16.91
2017-08-28T08:08:22.278Z,17.12
2017-08-28T08:09:31.126Z,17.08
2017-08-28T08:10:39.973Z,17.08
2017-08-28T08:11:48.817Z,17.18
2017-08-28T08:12:57.665Z,17.26
2017-08-28T08:14:06.516Z,17.26
2017-08-28T08:15:15.415Z,17.36
2017-08-28T08:16:24.264Z,17.43
2017-08-28T08:17:33.448Z,17.44
2017-08-28T08:18:42.294Z,17.51
2017-08-28T08:19:51.142Z,17.48
2017-08-28T08:21:00.288Z,17.55
2017-08-28T08:22:09.138Z,17.66
2017-08-28T08:23:17.984Z,17.72
2017-08-28T08:24:26.831Z,17.74
2017-08-28T08:25:35.682Z,17.66
2017-08-28T08:26:45.126Z,17.63
2017-08-28T08:27:53.976Z,17.79
2017-08-28T08:29:02.824Z,17.9
2017-08-28T08:30:11.668Z,17.86
2017-08-28T08:31:20.517Z,17.93
2017-08-28T08:32:29.465Z,17.96
2017-08-28T08:33:38.314Z,18.08
2017-08-28T08:34:47.167Z,18.12
2017-08-28T08:35:56.017Z,18.11
2017-08-28T08:37:04.869Z,18.11
2017-08-28T08:38:14.110Z,18.14
2017-08-28T08:39:22.958Z,18.25
2017-08-28T08:40:31.811Z,18.27
2017-08-28T08:41:40.657Z,18.32
2017-08-28T08:42:49.506Z,18.23
2017-08-28T08:43:58.451Z,18.26
2017-08-28T08:45:07.301Z,18.32
2017-08-28T08:46:16.148Z,18.39
2017-08-28T08:47:24.996Z,18.39
2017-08-28T08:48:33.847Z,18.37
2017-08-28T08:49:42.746Z,18.48
2017-08-28T08:50:51.596Z,18.47
2017-08-28T08:52:00.446Z,18.55
2017-08-28T08:53:09.295Z,18.58
2017-08-28T08:54:18.146Z,18.65
2017-08-28T08:55:27.195Z,18.63
2017-08-28T08:56:36.042Z,18.85
2017-08-28T08:57:44.890Z,18.88
2017-08-28T08:58:53.744Z,18.95
2017-08-28T09:00:02.591Z,18.82
2017-08-28T09:01:11.592Z,19.04
2017-08-28T09:02:20.443Z,18.88
2017-08-28T09:03:29.293Z,19.07
2017-08-28T09:04:38.144Z,19.1
2017-08-28T09:05:46.993Z,19.06
2017-08-28T09:06:55.994Z,19.11
2017-08-28T09:08:04.845Z,19.08
2017-08-28T09:09:14.028Z,19.13
2017-08-28T09:10:22.876Z,19.22
2017-08-28T09:11:31.724Z,19.33
2017-08-28T09:12:40.723Z,19.44
2017-08-28T09:13:49.571Z,19.37
2017-08-28T09:14:58.427Z,19.37
2017-08-28T09:16:07.295Z,19.39
2017-08-28T09:17:16.126Z,19.46
2017-08-28T09:18:25.276Z,19.58
2017-08-28T09:19:34.125Z,19.62
2017-08-28T09:20:42.971Z,19.62
2017-08-28T09:21:51.821Z,19.71
2017-08-28T09:23:00.670Z,19.76
2017-08-28T09:24:09.672Z,19.83
2017-08-28T09:25:18.521Z,19.98
2017-08-28T09:26:27.373Z,20.01
2017-08-28T09:27:36.224Z,20.02
2017-08-28T09:28:45.075Z,20.08
2017-08-28T09:29:53.977Z,20.1
2017-08-28T09:31:02.827Z,20.05
2017-08-28T09:32:11.677Z,20.01
2017-08-28T09:33:20.527Z,20.06
2017-08-28T09:34:29.376Z,20.02
2017-08-28T09:35:38.332Z,20.06
2017-08-28T09:36:47.513Z,20.06
2017-08-28T09:37:56.363Z,20.08
2017-08-28T09:39:05.212Z,20.1
2017-08-28T09:40:14.059Z,20.18
2017-08-28T09:41:22.958Z,20.26
2017-08-28T09:42:31.807Z,20.17
2017-08-28T09:43:40.987Z,20.2
2017-08-28T09:44:49.834Z,20.21
2017-08-28T09:45:58.682Z,20.33
2017-08-28T09:47:08.061Z,20.36
2017-08-28T09:48:16.908Z,20.41
2017-08-28T09:49:25.758Z,20.36
2017-08-28T09:50:34.608Z,20.54
2017-08-28T09:51:43.457Z,20.54
2017-08-28T09:52:52.461Z,20.55
2017-08-28T09:54:01.312Z,20.58
2017-08-28T09:55:10.163Z,20.57
2017-08-28T09:56:19.012Z,20.57
2017-08-28T09:57:27.863Z,20.51
2017-08-28T09:58:36.712Z,20.72
2017-08-28T09:59:45.563Z,20.74
2017-08-28T10:00:54.415Z,20.94
2017-08-28T10:02:03.266Z,20.97
2017-08-28T10:03:12.116Z,20.95
2017-08-28T10:04:21.015Z,21.04
2017-08-28T10:05:29.862Z,20.95
2017-08-28T10:06:39.057Z,21.03
2017-08-28T10:07:47.908Z,21.14
2017-08-28T10:08:56.759Z,21.22
2017-08-28T10:10:05.759Z,21.22
2017-08-28T10:11:14.610Z,21.24
2017-08-28T10:12:23.459Z,21.1
2017-08-28T10:13:32.310Z,21.13
2017-08-28T10:14:41.163Z,21.24
2017-08-28T10:15:50.165Z,21.35
2017-08-28T10:16:59.018Z,21.49
2017-08-28T10:18:07.867Z,21.44
2017-08-28T10:19:16.778Z,21.46
2017-08-28T10:20:25.637Z,21.46
2017-08-28T10:21:34.539Z,21.58
2017-08-28T10:22:43.393Z,21.71
2017-08-28T10:23:52.275Z,21.67
2017-08-28T10:25:01.104Z,21.58
2017-08-28T10:26:10.303Z,21.47
2017-08-28T10:27:19.302Z,21.5
2017-08-28T10:28:28.155Z,21.62
2017-08-28T10:29:37.004Z,21.71
2017-08-28T10:30:45.853Z,21.69
2017-08-28T10:31:54.702Z,21.65
2017-08-28T10:33:03.753Z,21.56
2017-08-28T10:34:12.602Z,21.61
2017-08-28T10:35:21.458Z,21.58
2017-08-28T10:36:30.309Z,21.74
2017-08-28T10:37:39.161Z,21.65
2017-08-28T10:38:48.159Z,21.68
2017-08-28T10:39:57.014Z,21.67
2017-08-28T10:41:05.863Z,21.64
2017-08-28T10:42:14.715Z,21.62
2017-08-28T10:43:23.563Z,21.64
2017-08-28T10:44:32.562Z,21.56
2017-08-28T10:45:41.412Z,21.68
2017-08-28T10:46:50.264Z,21.77
2017-08-28T10:47:59.113Z,22.03
2017-08-28T10:49:07.964Z,22.05
2017-08-28T10:50:16.962Z,21.82
2017-08-28T10:51:25.813Z,21.83
2017-08-28T10:52:34.661Z,21.91
2017-08-28T10:53:43.525Z,21.86
2017-08-28T10:54:52.377Z,21.83
2017-08-28T10:56:01.378Z,21.75
2017-08-28T10:57:10.231Z,21.86
2017-08-28T10:58:19.096Z,22.02
2017-08-28T10:59:27.947Z,22.14
2017-08-28T11:00:36.816Z,22.2
2017-08-28T11:01:45.772Z,22.22
2017-08-28T11:02:54.621Z,22.46
2017-08-28T11:04:03.480Z,22.49
2017-08-28T11:05:12.324Z,22.43
2017-08-28T11:06:21.172Z,22.49
2017-08-28T11:07:30.085Z,22.45
2017-08-28T11:08:38.936Z,22.52
2017-08-28T11:09:47.790Z,22.58
2017-08-28T11:10:56.642Z,22.65
2017-08-28T11:12:05.494Z,22.7
2017-08-28T11:13:15.121Z,22.77
2017-08-28T11:14:23.972Z,22.76
2017-08-28T11:15:33.161Z,22.88
2017-08-28T11:16:42.011Z,22.92
2017-08-28T11:17:50.871Z,23.02
2017-08-28T11:18:59.721Z,22.91
2017-08-28T11:20:08.908Z,22.98
2017-08-28T11:21:17.757Z,23.02
2017-08-28T11:22:26.607Z,23.13
2017-08-28T11:23:35.456Z,23.05
2017-08-28T11:24:44.358Z,23.04
2017-08-28T11:25:53.209Z,22.85
2017-08-28T11:27:02.061Z,22.92
2017-08-28T11:28:10.914Z,22.92
2017-08-28T11:29:19.766Z,22.92
2017-08-28T11:30:28.919Z,22.97
2017-08-28T11:31:38.103Z,23.02
2017-08-28T11:32:46.956Z,23.12
2017-08-28T11:33:55.811Z,23.02
2017-08-28T11:35:04.663Z,23.16
2017-08-28T11:36:13.620Z,23.38
2017-08-28T11:37:22.473Z,23.33
2017-08-28T11:38:31.325Z,23.16
2017-08-28T11:39:40.178Z,23.19
2017-08-28T11:40:49.029Z,23.32
2017-08-28T11:41:58.032Z,23.35
2017-08-28T11:43:06.885Z,23.6
2017-08-28T11:44:15.739Z,23.46
2017-08-28T11:45:24.593Z,23.55
2017-08-28T11:46:33.460Z,23.57
2017-08-28T11:47:42.364Z,23.6
2017-08-28T11:48:51.218Z,23.61
2017-08-28T11:50:00.069Z,23.65
2017-08-28T11:51:08.924Z,23.61
2017-08-28T11:52:17.773Z,23.61
2017-08-28T11:53:26.925Z,23.66
2017-08-28T11:54:35.776Z,23.68
2017-08-28T11:55:44.628Z,23.76
2017-08-28T11:56:53.483Z,23.85
2017-08-28T11:58:02.668Z,23.83
2017-08-28T11:59:11.623Z,23.84
2017-08-28T12:00:20.478Z,23.88
2017-08-28T12:01:29.330Z,23.9
2017-08-28T12:02:38.187Z,23.84
2017-08-28T12:03:47.039Z,23.63
2017-08-28T12:04:56.157Z,23.6
2017-08-28T12:06:05.070Z,23.7
2017-08-28T12:07:13.966Z,23.69
2017-08-28T12:08:22.781Z,23.72
2017-08-28T12:09:31.632Z,23.75
2017-08-28T12:10:40.875Z,23.94
2017-08-28T12:11:50.060Z,24.02
2017-08-28T12:12:58.915Z,24.05
2017-08-28T12:14:07.774Z,24.16
2017-08-28T12:15:16.629Z,24.16
2017-08-28T12:16:25.484Z,24.06
2017-08-28T12:17:34.341Z,24.08
2017-08-28T12:18:43.195Z,23.97
2017-08-28T12:19:52.051Z,23.95
2017-08-28T12:21:00.905Z,23.9
2017-08-28T12:22:10.010Z,23.9
2017-08-28T12:23:18.864Z,23.98
2017-08-28T12:24:27.718Z,24.05
2017-08-28T12:25:36.574Z,24.16
2017-08-28T12:26:45.429Z,24.34
2017-08-28T12:27:54.335Z,24.45
2017-08-28T12:29:03.191Z,24.43
2017-08-28T12:30:12.046Z,24.57
2017-08-28T12:31:20.904Z,24.73
2017-08-28T12:32:29.763Z,24.81
2017-08-28T12:33:39.003Z,24.9
2017-08-28T12:34:47.857Z,24.99
2017-08-28T12:35:56.709Z,24.85
2017-08-28T12:37:05.566Z,24.76
2017-08-28T12:38:14.422Z,24.65
2017-08-28T12:39:23.376Z,24.53
2017-08-28T12:40:32.229Z,24.58
2017-08-28T12:41:41.082Z,24.42
2017-08-28T12:42:49.938Z,24.37
2017-08-28T12:43:58.795Z,24.4
2017-08-28T12:45:07.699Z,24.3
2017-08-28T12:46:16.558Z,24.15
2017-08-28T12:47:25.411Z,24.16
2017-08-28T12:48:34.266Z,24.15
2017-08-28T12:49:43.122Z,24.05
2017-08-28T12:50:52.028Z,24.03
2017-08-28T12:52:00.882Z,24.03
2017-08-28T12:53:09.732Z,24.03
2017-08-28T12:54:18.587Z,24.1
2017-08-28T12:55:27.442Z,24.05
2017-08-28T12:56:36.347Z,24.08
2017-08-28T12:57:45.204Z,24.1
2017-08-28T12:58:54.057Z,24.2
2017-08-28T13:00:02.917Z,24.32
2017-08-28T13:01:11.771Z,24.45
2017-08-28T13:02:20.927Z,24.5
2017-08-28T13:03:29.781Z,24.68
2017-08-28T13:04:38.634Z,24.73
2017-08-28T13:05:47.492Z,24.81
2017-08-28T13:06:56.367Z,24.76
2017-08-28T13:08:05.706Z,24.76
2017-08-28T13:09:14.559Z,24.77
2017-08-28T13:10:23.416Z,24.83
2017-08-28T13:11:32.268Z,24.62
2017-08-28T13:12:41.125Z,24.6
2017-08-28T13:13:50.028Z,24.5
2017-08-28T13:14:58.885Z,24.55
2017-08-28T13:16:07.742Z,24.5
2017-08-28T13:17:16.616Z,24.55
2017-08-28T13:18:25.689Z,24.43
2017-08-28T13:19:34.951Z,24.27
2017-08-28T13:20:43.815Z,24.4
2017-08-28T13:21:52.670Z,24.37
2017-08-28T13:23:01.525Z,24.4
2017-08-28T13:24:10.399Z,24.55
2017-08-28T13:25:19.409Z,24.78
2017-08-28T13:26:28.286Z,24.78
2017-08-28T13:27:37.194Z,24.85
2017-08-28T13:28:46.054Z,25.03
2017-08-28T13:29:54.933Z,25
2017-08-28T13:31:03.840Z,25.2
2017-08-28T13:32:12.699Z,25.18
2017-08-28T13:33:21.888Z,25.24
2017-08-28T13:34:30.763Z,25.08
2017-08-28T13:35:39.614Z,25.02
2017-08-28T13:36:48.819Z,24.96
2017-08-28T13:37:57.728Z,24.98
2017-08-28T13:39:06.643Z,25.02
2017-08-28T13:40:15.837Z,25.03
2017-08-28T13:41:24.705Z,25.14
2017-08-28T13:42:33.748Z,25.15
2017-08-28T13:43:42.969Z,25.23
2017-08-28T13:44:51.844Z,25.15
2017-08-28T13:46:00.702Z,25.2
2017-08-28T13:47:09.562Z,25.27
2017-08-28T13:48:18.522Z,25.42
2017-08-28T13:49:27.381Z,25.47
2017-08-28T13:50:36.239Z,25.39
2017-08-28T13:51:45.157Z,25.4
2017-08-28T13:52:54.021Z,25.05
2017-08-28T13:54:02.884Z,25.23
2017-08-28T13:55:11.750Z,25.2
2017-08-28T13:56:20.616Z,25.25
2017-08-28T13:57:29.484Z,25.24
2017-08-28T13:58:38.349Z,25.33
2017-08-28T13:59:47.462Z,25.42
2017-08-28T14:00:56.332Z,25.54
2017-08-28T14:02:05.201Z,25.77
2017-08-28T14:03:14.070Z,25.82
2017-08-28T14:04:22.933Z,25.91
2017-08-28T14:05:32.095Z,26.09
2017-08-28T14:06:40.954Z,26.1
2017-08-28T14:07:49.819Z,26.26
2017-08-28T14:08:58.938Z,26.25
2017-08-28T14:10:08.898Z,26.36
2017-08-28T14:11:18.155Z,26.52
2017-08-28T14:12:27.656Z,26.67
2017-08-28T14:13:36.977Z,26.58
2017-08-28T14:14:46.251Z,26.75
2017-08-28T14:15:55.263Z,26.92
2017-08-28T14:17:04.617Z,27
2017-08-28T14:18:14.430Z,27.14
2017-08-28T14:19:23.638Z,27.17
2017-08-28T14:20:32.534Z,27.13
2017-08-28T14:21:41.421Z,27.14
2017-08-28T14:22:50.514Z,27.14
2017-08-28T14:23:59.725Z,27.1
2017-08-28T14:25:08.594Z,27.13
2017-08-28T14:26:17.462Z,27.04
2017-08-28T14:27:26.327Z,26.92
2017-08-28T14:28:35.520Z,26.76
2017-08-28T14:29:44.386Z,26.51
2017-08-28T14:30:53.246Z,26.35
2017-08-28T14:32:02.106Z,26.28
2017-08-28T14:33:10.967Z,26.17
2017-08-28T14:34:20.214Z,25.99
2017-08-28T14:35:29.074Z,25.91
2017-08-28T14:36:37.933Z,25.79
2017-08-28T14:37:46.791Z,25.76
2017-08-28T14:38:55.651Z,25.7
2017-08-28T14:40:04.562Z,25.65
2017-08-28T14:41:13.422Z,25.67
2017-08-28T14:42:22.277Z,25.64
2017-08-28T14:43:31.471Z,25.62
2017-08-28T14:44:40.333Z,25.54
2017-08-28T14:45:49.568Z,25.5
2017-08-28T14:46:58.519Z,25.4
2017-08-28T14:48:07.375Z,25.38
2017-08-28T14:49:16.247Z,25.28
2017-08-28T14:50:25.258Z,25.28